Flight Track Log - Related Links

Times and Time Zones

All times are in EDT time to prevent confusion due to time zone crossing. See the N884FT flight status page for this flight to view local times or setup timezone preferences in your user account.

Time Position Orientation Groundspeed Altitude Reporting Facility
EDT Latitude Longitude Course Direction KTS MPH feet Rate Location/Type
Wed 09:26:52 AM 28.1000 -80.6167 360° North 72 83 600  Level Orlando TRACON
Wed 09:27:10 AM 28.1000 -80.6167 60° Northeast 82 94 1,000 769 Climbing Orlando TRACON
Wed 09:28:10 AM 28.1167 -80.5833 60° Northeast 104 120 1,600 450 Climbing Orlando TRACON
Wed 09:29:10 AM 28.1000 -80.5500 120° Southeast 112 129 1,900 347 Climbing Orlando TRACON
Wed 09:30:11 AM 28.0833 -80.5500 180° South 140 161 2,300 496 Climbing Orlando TRACON
Wed 09:31:11 AM 28.0500 -80.5833 221° Southwest 124 143 2,900 650 Climbing Orlando TRACON
Wed 09:32:11 AM 28.0500 -80.6167 270° West 122 140 3,600 357 Climbing Orlando TRACON
Wed 09:34:16 AM 28.0172 -80.7139 249° West 151 174 4,000 130 Climbing Miami Center
Wed 09:35:16 AM 28.0033 -80.7606 251° West 156 180 4,000  Level Miami Center
Wed 09:36:16 AM 27.9900 -80.8000 249° West 166 191 4,000  Level Miami Center
Wed 09:37:16 AM 27.9503 -80.7939 172° South 128 147 4,000  Level Miami Center
Wed 09:38:16 AM 27.9003 -80.7897 176° South 159 183 4,000  Level Miami Center
Wed 09:39:16 AM 27.8547 -80.7858 176° South 165 190 4,000  Level Miami Center
Wed 09:40:16 AM 27.8089 -80.7819 176° South 165 190 4,000  Level Miami Center
Wed 09:41:16 AM 27.7672 -80.7781 175° South 160 184 4,000  Level Miami Center
Wed 09:42:16 AM 27.7233 -80.7744 176° South 160 184 4,000  Level Miami Center
Wed 09:43:16 AM 27.6733 -80.7703 176° South 160 184 4,000  Level Miami Center
Wed 09:44:16 AM 27.6278 -80.7642 173° South 160 184 4,000  Level Miami Center
Wed 09:45:16 AM 27.5817 -80.7625 178° South 160 184 4,000 200 Level Miami Center
Wed 09:46:16 AM 27.5464 -80.7567 172° South 160 184 4,400 500 Climbing Miami Center
Wed 09:47:16 AM 27.5047 -80.7528 175° South 155 178 5,000 550 Climbing Miami Center
Wed 09:48:16 AM 27.4589 -80.7489 176° South 155 178 5,500 450 Climbing Miami Center
Wed 09:49:16 AM 27.4194 -80.7453 175° South 155 178 5,900 250 Climbing Miami Center
Wed 09:50:16 AM 27.3778 -80.7414 175° South 155 178 6,000 50 Climbing Miami Center
Wed 09:51:16 AM 27.3361 -80.7378 176° South 165 190 6,000  Level Miami Center
Wed 09:52:16 AM 27.2925 -80.7339 175° South 165 190 6,000  Level Miami Center
Wed 09:53:16 AM 27.2425 -80.7300 176° South 160 184 6,000  Level Miami Center
Wed 09:54:16 AM 27.1986 -80.7261 175° South 160 184 6,000  Level Miami Center
Wed 09:55:16 AM 27.1550 -80.7222 175° South 160 184 6,000  Level Miami Center
Wed 09:56:16 AM 27.1153 -80.7186 175° South 160 184 6,000  Level Miami Center
Wed 09:57:16 AM 27.0717 -80.7150 176° South 160 184 6,000 -250 Level Miami Center
Wed 09:58:16 AM 27.0217 -80.7086 174° South 160 184 5,500 -500 Descending Miami Center
Wed 09:59:16 AM 26.9736 -80.7047 176° South 166 191 5,000 -500 Descending Miami Center
Wed 10:00:16 AM 26.9278 -80.7008 176° South 178 205 4,500 -121 Descending Miami Center
Wed 10:02:00 AM 26.8553 -80.6930 174° South  Level FlightAware Approximate
Wed 10:07:32 AM 26.6231 -80.6167 158° South 155 178 4,000  Level Miami Center
Wed 10:08:02 AM 26.6067 -80.6089 157° South 151 174 4,000 -261 Level Miami Center
Wed 10:09:00 AM 26.5793 -80.5897 156° South  Level FlightAware Approximate
Wed 10:09:04 AM 26.5586 -80.6053 176° South 176 203 3,600  Level Miami Center
Wed 10:10:00 AM 26.5406 -80.5715 158° South  Level FlightAware Approximate
Wed 10:10:11 AM 26.5064 -80.6083 183° South 172 198 3,100  Level Miami Center
Wed 10:11:00 AM 26.5017 -80.5538 158° South  Level FlightAware Approximate
Wed 10:11:06 AM 26.4625 -80.6067 178° South 167 192 3,000  Level Miami Center
Wed 10:12:00 AM 26.4628 -80.5361 158° South  Level FlightAware Approximate
Wed 10:12:07 AM 26.4208 -80.6100 184° South 156 180 3,000  Level Miami Center
Wed 10:13:14 AM 26.3706 -80.6086 179° South 157 181 3,000  Level Miami Center
Wed 10:14:21 AM 26.3292 -80.5956 164° South 143 165 3,000 -148 Level Miami Center
Wed 10:15:16 AM 26.3050 -80.5647 131° Southeast 153 176 2,700 -466 Descending Miami Center
Wed 10:16:17 AM 26.2744 -80.5289 134° Southeast 154 177 2,100 -362 Descending Miami Center
Wed 10:17:12 AM 26.2481 -80.4958 132° Southeast 147 169 2,000 -52 Descending Miami Center
Wed 10:18:13 AM 26.2219 -80.4625 131° Southeast 139 160 2,000  Level Miami Center
Wed 10:19:14 AM 26.1933 -80.4292 134° Southeast 147 169 2,000  Level Miami Center
Wed 10:20:15 AM 26.1756 -80.3942 120° Southeast 135 155 2,000  Level Miami Center
Wed 10:21:16 AM 26.1764 -80.3525 89° East 139 160 2,000  Level Miami Center
Wed 10:22:17 AM 26.1858 -80.3156 74° East 131 151 2,000 -148 Level Miami Center
Wed 10:23:18 AM 26.1844 -80.2764 92° East 95 109 1,700 -393 Descending Miami Center
Wed 10:24:19 AM 26.1894 -80.2508 78° East 93 107 1,200 -492 Descending Miami Center
Wed 10:25:20 AM 26.1919 -80.2233 84° East 89 102 700 -492 Descending Miami Center
Wed 10:26:21 AM 26.1928 -80.1931 88° East 95 109 200 -492 Descending Miami Center
Wed 10:28:00 AM 26.1833 -80.1667 77° East  Level FlightAware Approximate

Login

Don't have an account? Register now (free) for customized features, flight alerts, and more!